Forside
METAR-TAF:

METAR-TAF

Lufthavne :

Kullu / Manali, Indien

Breddekreds: 31-52-36N, længdekreds: 77-09-16E, højde: 1089 m

METAR: fraværende

Tid: 23:40 (18:10 UTC)

Vejrudsigter

Denne rapport blev lavet for 13 timer og 10 minutter siden, kl. 05:00 UTC
Foreløbig gælder fra 03 på 06 UTC til 03 på 15 UTC
Vind 5 kt fra vestnordvest
Sigt: 5000 m
Nogle få skyer i en højde af 10000 ft
tåge/dis
ændring
fra 03 på 11 UTC til 03 på 13 UTC
Vind 5 kt fra vest
Sigt: 3000 m
tåge/dis

TAF: VIBR 030500Z 0306/0315 30005KT 5000 HZ FEW100 BECMG 0311/0313 27005KT 3000 HZ

Vejrobservationer og prognoser fra mere end 4000 lufthavne (METAR og TAF).

De gule og røde prikker repræsenterer de meteorologiske stationer.

Flyt musen over at se navnet på stationen.

Så klik over at se vejr observationer og prognoser.

At skifte det kort: Klik på de grønne knapper med et sort kors for at zoome ind; på den grønne knap med en bindestreg for at zoome ud; eller på de grønne pile for tilstødende kort.


METAR-TAF: